KSBA

Santa Barbara Municipal Airport

Santa Barbara, California, USA
METAR KSBA 181453Z 00000KT 10SM CLR 08/06 A3006 RMK AO2 SLP180 T00830061 56002
Observed Flight Rules
Jan-18 @ 14:53 UTC (47 minutes ago) Visual Flight Rules
Wind Visibility Clouds
Calm 10 miles
  • Clear skies
Temperatures Readings
Current 8°C / 46°F
Dewpoint 6°C / 43°F
Humidity 87%
Altimeter 30.06" Hg
Pressure 1018 hPa
Elevation 3
METAR KSBA 181453Z 00000KT 10SM CLR 08/06 A3006 RMK AO2 SLP180 T00830061 56002
Observed Flight Rules
Jan-18 @ 14:53 UTC
(47 minutes ago)
VFR
Wind Visibility
Calm 10 miles
Clouds
  • Clear skies
Temperature Dewpoint
8°C / 46°F 6°C / 43°F
Humidity Altimeter Pressure
87% 30.06" Hg 1018 hPa